METAR Data
IDs: Format: Raw Decoded Include TAF

Data at: 0327 UTC 10 Dec 2022

METAR for:KAXV (Wapakoneta/Armstrong, OH, US)
Text:KAXV 100315Z AUTO 05008KT 7SM OVC008 02/01 A3016 RMK AO2
Temperature: 2.0°C ( 36°F)
Dewpoint: 1.0°C ( 34°F) [RH = 93%]
Pressure (altimeter):30.16 inches Hg (1021.4 mb)
Winds:from the NE (50 degrees) at 9 MPH (8 knots; 4.1 m/s)
Visibility: 7 sm ( 11 km)
Ceiling:800 feet AGL
Clouds: overcast cloud deck at 800 feet AGL
QC Flag:automated observation with no human augmentation